Time;durP1;ratioP1;P1;durP2;ratioP2;P2;SDS_P1;SDS_P2;PMS_P1;PMS_P2;Temp;Humidity;BMP_temperature;BMP_pressure;BME280_temperature;BME280_humidity;BME280_pressure;Samples;Min_cycle;Max_cycle;Signal;HPM_P1;HPM_P2
2023/06/17 00:00:55;;;;;;;4.03;3.70;;;21.20;91.90;;;21.63;nan;100551.78;4989545;28;21125;-67
2023/06/17 00:03:22;;;;;;;4.33;3.27;;;21.20;91.00;;;21.64;nan;100546.28;4992608;28;20646;-67
2023/06/17 00:05:51;;;;;;;4.17;3.77;;;21.20;91.60;;;21.60;nan;100545.00;4979861;28;20670;-67
2023/06/17 00:08:18;;;;;;;3.60;3.20;;;21.20;92.10;;;21.56;nan;100535.75;4988815;28;20708;-67
2023/06/17 00:10:45;;;;;;;5.07;3.90;;;21.20;92.70;;;21.57;nan;100536.59;4990159;28;20634;-67
2023/06/17 00:13:18;;;;;;;4.20;3.80;;;21.20;92.90;;;21.57;nan;100540.03;4990742;28;20626;-64
2023/06/17 00:15:50;;;;;;;4.30;3.60;;;21.10;92.50;;;21.52;nan;100533.66;4990775;28;20658;-67
2023/06/17 00:18:19;;;;;;;4.00;3.20;;;21.10;93.10;;;21.47;nan;100534.19;4990222;28;20618;-67
2023/06/17 00:20:48;;;;;;;4.30;3.57;;;21.10;93.20;;;21.43;nan;100527.59;4988856;28;20623;-67
2023/06/17 00:23:15;;;;;;;10.40;3.97;;;21.10;93.30;;;21.37;nan;100531.00;4991024;28;20636;-67
2023/06/17 00:25:42;;;;;;;4.60;4.20;;;20.90;93.70;;;21.38;nan;100531.81;4990917;28;20666;-69
2023/06/17 00:28:09;;;;;;;3.73;3.43;;;21.00;93.50;;;21.41;nan;100524.31;4991073;28;20661;-67
2023/06/17 00:30:36;;;;;;;5.30;4.03;;;21.00;93.80;;;21.42;nan;100525.16;4990923;28;20984;-66
2023/06/17 00:33:04;;;;;;;4.30;3.70;;;21.00;93.60;;;21.34;nan;100520.72;4985665;28;20654;-67
2023/06/17 00:35:32;;;;;;;4.53;3.77;;;20.90;93.50;;;21.33;nan;100529.72;4994135;28;21245;-66
2023/06/17 00:37:59;;;;;;;4.43;4.03;;;20.90;93.50;;;21.37;nan;100524.84;4989849;28;21193;-67
2023/06/17 00:40:26;;;;;;;4.10;3.70;;;20.90;93.00;;;21.44;nan;100526.63;4991196;28;20634;-67
2023/06/17 00:42:53;;;;;;;4.47;4.00;;;21.00;92.90;;;21.46;nan;100534.38;4991254;28;20706;-67
2023/06/17 00:45:20;;;;;;;5.30;3.90;;;21.00;92.20;;;21.48;nan;100529.72;4990356;28;21216;-67
2023/06/17 00:47:47;;;;;;;4.33;3.50;;;21.00;92.70;;;21.48;nan;100527.91;4982171;28;20671;-67
2023/06/17 00:50:15;;;;;;;3.77;3.20;;;21.00;92.70;;;21.49;nan;100529.53;4970389;28;20636;-67
2023/06/17 00:52:44;;;;;;;4.07;3.70;;;21.10;93.30;;;21.48;nan;100532.38;4977693;28;20630;-67
2023/06/17 00:55:12;;;;;;;4.43;4.00;;;21.10;93.50;;;21.47;nan;100536.03;4992075;28;20650;-65
2023/06/17 00:57:39;;;;;;;4.27;3.87;;;21.00;92.80;;;21.47;nan;100533.38;4994412;28;20622;-66
2023/06/17 01:00:12;;;;;;;3.23;2.97;;;21.00;92.60;;;21.39;nan;100534.28;4993567;28;20629;-67
2023/06/17 01:02:40;;;;;;;4.00;3.60;;;21.00;92.40;;;21.33;nan;100534.19;4975570;28;20642;-67
2023/06/17 01:05:11;;;;;;;5.63;3.70;;;20.90;93.00;;;21.30;nan;100527.41;4990762;28;20701;-67
2023/06/17 01:08:28;;;;;;;5.37;3.53;;;20.90;93.20;;;21.31;nan;100530.91;4962380;28;20681;-67
2023/06/17 01:11:16;;;;;;;3.50;2.80;;;20.90;93.60;;;21.27;nan;100538.41;4958691;28;20626;-67
2023/06/17 01:13:46;;;;;;;3.10;2.80;;;20.90;94.10;;;21.18;nan;100531.53;4974204;28;20618;-67
2023/06/17 01:16:14;;;;;;;3.70;3.40;;;20.80;94.80;;;21.01;nan;100530.00;4971542;28;20634;-67
2023/06/17 01:18:42;;;;;;;4.43;4.00;;;20.70;99.90;;;20.82;nan;100527.84;4958048;28;20595;-67
2023/06/17 01:21:09;;;;;;;5.27;3.77;;;20.50;99.90;;;20.72;nan;100535.22;4976099;28;20646;-67
2023/06/17 01:23:38;;;;;;;4.00;3.43;;;20.40;99.90;;;20.62;nan;100524.00;4991332;28;21016;-65
2023/06/17 01:26:07;;;;;;;6.27;3.50;;;20.30;99.90;;;20.56;nan;100527.38;4993239;28;20621;-68
2023/06/17 01:28:36;;;;;;;7.43;3.60;;;20.20;99.90;;;20.50;nan;100525.44;4993633;28;21248;-65
2023/06/17 01:31:04;;;;;;;4.17;3.60;;;20.20;99.80;;;20.45;nan;100522.47;4991227;28;20658;-65
2023/06/17 01:33:32;;;;;;;4.57;3.90;;;20.10;99.90;;;20.38;nan;100524.22;4992456;28;20617;-67
2023/06/17 01:36:04;;;;;;;3.80;3.37;;;20.10;99.90;;;20.29;nan;100517.31;4989519;28;20662;-65
2023/06/17 01:38:37;;;;;;;5.53;4.00;;;20.00;99.90;;;20.21;nan;100517.34;4996091;28;20642;-67
2023/06/17 01:41:16;;;;;;;4.13;3.70;;;19.90;99.50;;;20.19;nan;100516.69;4992549;28;20680;-65
2023/06/17 01:43:45;;;;;;;5.97;3.40;;;19.90;99.20;;;20.22;nan;100522.47;4984242;28;20643;-67
2023/06/17 01:46:13;;;;;;;7.70;4.50;;;19.90;98.80;;;20.26;nan;100526.41;5002640;28;20638;-67
2023/06/17 01:48:41;;;;;;;5.13;4.33;;;20.00;98.30;;;20.31;nan;100528.56;4987431;28;20656;-67
2023/06/17 01:51:08;;;;;;;4.70;3.80;;;20.00;97.90;;;20.33;nan;100521.25;4963270;28;20622;-67
2023/06/17 01:53:35;;;;;;;4.97;4.47;;;20.00;98.10;;;20.35;nan;100516.59;4989955;28;20617;-66
2023/06/17 01:56:03;;;;;;;7.13;4.57;;;20.00;97.80;;;20.34;nan;100525.53;4973178;28;21257;-67
2023/06/17 01:58:30;;;;;;;5.10;4.40;;;20.00;97.80;;;20.32;nan;100525.72;4993056;28;20625;-67
2023/06/17 02:00:57;;;;;;;4.40;3.90;;;20.00;98.60;;;20.32;nan;100522.22;4994638;28;21158;-67
2023/06/17 02:03:26;;;;;;;4.97;3.50;;;20.00;99.70;;;20.29;nan;100522.59;4996852;28;20730;-66
2023/06/17 02:05:53;;;;;;;5.20;3.60;;;20.00;97.60;;;20.31;nan;100524.09;4971216;28;20665;-67
2023/06/17 02:08:22;;;;;;;15.30;3.87;;;19.90;96.70;;;20.31;nan;100517.94;4990191;28;20670;-68
2023/06/17 02:10:49;;;;;;;4.20;3.43;;;19.90;97.10;;;20.31;nan;100515.31;4974922;28;20614;-67
2023/06/17 02:13:16;;;;;;;4.67;3.70;;;20.00;97.60;;;20.31;nan;100520.59;4993026;28;20692;-67
2023/06/17 02:15:43;;;;;;;4.63;3.50;;;19.90;99.00;;;20.26;nan;100517.66;4990965;28;20668;-67
2023/06/17 02:18:12;;;;;;;5.07;3.30;;;20.00;99.90;;;20.23;nan;100518.81;4993661;28;20665;-67
2023/06/17 02:20:39;;;;;;;3.23;3.00;;;19.90;98.90;;;20.24;nan;100520.47;4990593;28;20630;-64
2023/06/17 02:23:07;;;;;;;3.80;3.37;;;19.90;99.20;;;20.18;nan;100515.84;4990536;28;21264;-67
2023/06/17 02:25:36;;;;;;;3.90;3.40;;;19.80;99.90;;;20.16;nan;100517.84;4991848;28;20660;-67
2023/06/17 02:28:03;;;;;;;5.53;3.60;;;19.80;99.90;;;20.10;nan;100516.69;4992689;28;21073;-67
2023/06/17 02:30:30;;;;;;;5.60;4.20;;;19.80;99.90;;;20.07;nan;100518.88;4973599;28;20654;-67
2023/06/17 02:32:58;;;;;;;4.60;3.20;;;19.70;99.90;;;20.04;nan;100505.97;4994604;28;20641;-67
2023/06/17 02:35:25;;;;;;;4.33;3.90;;;19.70;99.80;;;20.01;nan;100509.81;5010904;28;20661;-67
2023/06/17 02:37:53;;;;;;;3.20;2.83;;;19.70;99.90;;;19.97;nan;100508.53;5002809;28;20722;-67
2023/06/17 02:40:20;;;;;;;3.40;3.10;;;19.70;99.90;;;19.89;nan;100508.53;4975050;28;20982;-68
2023/06/17 02:42:48;;;;;;;3.57;3.27;;;19.50;99.90;;;19.85;nan;100509.06;4976430;28;21010;-68
2023/06/17 02:45:15;;;;;;;3.33;3.03;;;19.50;99.90;;;19.85;nan;100514.34;4998377;28;20677;-67
2023/06/17 02:47:42;;;;;;;3.10;2.80;;;19.50;99.90;;;19.86;nan;100505.41;4990736;28;20677;-67
2023/06/17 02:50:09;;;;;;;4.77;3.90;;;19.50;99.90;;;19.86;nan;100510.72;4992617;28;20606;-66
2023/06/17 02:52:39;;;;;;;4.40;3.30;;;19.50;99.90;;;19.80;nan;100506.94;4990893;28;20633;-66
2023/06/17 02:55:07;;;;;;;4.90;3.50;;;19.50;99.90;;;19.83;nan;100501.28;4978687;28;20666;-67
2023/06/17 02:57:35;;;;;;;4.23;3.43;;;19.50;99.20;;;19.88;nan;100504.25;4991848;28;20630;-66
2023/06/17 03:00:05;;;;;;;4.80;3.90;;;19.50;99.00;;;19.96;nan;100503.38;4989112;28;20646;-67
2023/06/17 03:02:32;;;;;;;6.50;4.40;;;19.60;98.70;;;19.99;nan;100511.00;4999349;28;20637;-67
2023/06/17 03:04:59;;;;;;;7.17;4.57;;;19.70;98.80;;;19.92;nan;100513.50;4989875;28;20662;-66
2023/06/17 03:07:26;;;;;;;5.00;4.07;;;19.60;98.80;;;19.86;nan;100511.56;4990006;28;20673;-66
2023/06/17 03:09:53;;;;;;;6.10;4.50;;;19.60;98.60;;;19.85;nan;100520.47;4992525;28;20610;-67
2023/06/17 03:12:20;;;;;;;5.03;3.83;;;19.50;98.70;;;19.86;nan;100513.38;4991474;28;20625;-67
2023/06/17 03:14:47;;;;;;;5.53;4.07;;;19.50;98.70;;;19.84;nan;100513.56;4991327;28;21398;-67
2023/06/17 03:17:14;;;;;;;7.47;3.60;;;19.50;99.20;;;19.85;nan;100515.19;4989109;28;20642;-67
2023/06/17 03:19:43;;;;;;;3.60;3.17;;;19.50;99.90;;;19.88;nan;100514.84;4994973;28;20642;-67
2023/06/17 03:22:10;;;;;;;3.80;3.30;;;19.50;99.90;;;19.82;nan;100512.91;4990670;28;20622;-66
2023/06/17 03:24:37;;;;;;;3.60;2.77;;;19.50;99.90;;;19.73;nan;100510.44;4990369;28;20641;-67
2023/06/17 03:27:05;;;;;;;4.20;3.07;;;19.40;99.90;;;19.59;nan;100514.63;4972583;28;20631;-67
2023/06/17 03:29:34;;;;;;;3.37;3.00;;;19.30;99.90;;;19.43;nan;100513.84;4981348;28;20687;-67
2023/06/17 03:32:01;;;;;;;8.90;3.40;;;19.10;99.90;;;19.25;nan;100509.56;4986915;28;20642;-67
2023/06/17 03:34:30;;;;;;;4.53;3.33;;;19.00;99.90;;;19.20;nan;100511.06;4975071;28;20673;-66
2023/06/17 03:36:57;;;;;;;5.10;3.07;;;18.90;99.90;;;19.19;nan;100509.41;4989022;28;20651;-66
2023/06/17 03:39:24;;;;;;;5.00;3.10;;;18.90;99.90;;;19.15;nan;100516.03;5004908;28;20622;-67
2023/06/17 03:41:51;;;;;;;3.53;3.10;;;18.90;99.90;;;19.13;nan;100513.56;5010677;28;20636;-67
2023/06/17 03:44:18;;;;;;;4.17;3.67;;;18.90;99.90;;;19.13;nan;100516.22;4981063;28;20669;-67
2023/06/17 03:46:45;;;;;;;3.93;3.50;;;18.90;99.90;;;19.20;nan;100517.19;4987716;28;20644;-67
2023/06/17 03:49:12;;;;;;;5.03;3.53;;;18.90;99.90;;;19.24;nan;100523.81;4991337;28;20654;-65
2023/06/17 03:51:39;;;;;;;6.67;3.23;;;18.90;99.90;;;19.36;nan;100519.00;4987662;28;20630;-66
2023/06/17 03:54:06;;;;;;;4.13;3.13;;;19.00;99.90;;;19.52;nan;100516.31;5001848;28;20677;-66
2023/06/17 03:56:33;;;;;;;5.27;3.13;;;19.20;99.90;;;19.65;nan;100524.56;5009547;28;20626;-66
2023/06/17 03:59:00;;;;;;;3.53;3.23;;;19.30;99.90;;;19.76;nan;100521.50;4990640;28;20642;-67
2023/06/17 04:01:27;;;;;;;3.30;2.90;;;19.50;99.90;;;19.81;nan;100518.34;4990025;28;20634;-66
2023/06/17 04:03:54;;;;;;;4.27;3.30;;;19.50;99.90;;;19.79;nan;100521.16;4994730;28;20660;-67
2023/06/17 04:06:21;;;;;;;4.63;2.87;;;19.50;99.90;;;19.79;nan;100523.00;5010188;28;20598;-66
2023/06/17 04:08:48;;;;;;;3.20;2.93;;;19.50;99.90;;;19.86;nan;100524.78;5010038;28;21254;-67
2023/06/17 04:11:16;;;;;;;2.57;2.37;;;19.60;99.70;;;20.01;nan;100525.72;4996278;28;20639;-66
2023/06/17 04:13:43;;;;;;;3.53;3.13;;;19.70;99.80;;;20.13;nan;100519.03;4994822;28;20614;-66
2023/06/17 04:16:11;;;;;;;2.40;2.30;;;19.80;99.70;;;20.27;nan;100525.44;4993644;28;20780;-67
2023/06/17 04:18:40;;;;;;;3.17;2.90;;;19.90;99.50;;;20.43;nan;100525.31;4973832;28;20622;-66
2023/06/17 04:21:07;;;;;;;2.87;2.60;;;20.10;99.40;;;20.60;nan;100523.38;4970502;28;21167;-67
2023/06/17 04:23:34;;;;;;;3.40;3.10;;;20.30;99.20;;;20.75;nan;100524.25;4964867;28;20650;-67
2023/06/17 04:26:01;;;;;;;5.73;3.43;;;20.50;98.90;;;20.86;nan;100521.19;4990744;28;20673;-67
2023/06/17 04:28:31;;;;;;;3.43;3.13;;;20.50;99.20;;;21.03;nan;100527.19;4990392;28;21244;-66
2023/06/17 04:31:00;;;;;;;5.17;3.43;;;20.70;99.90;;;21.22;nan;100526.66;5000803;28;20634;-66
2023/06/17 04:33:30;;;;;;;4.80;3.90;;;20.90;99.20;;;21.28;nan;100526.78;4977181;28;20650;-67
2023/06/17 04:35:57;;;;;;;7.73;4.17;;;21.00;95.50;;;21.34;nan;100525.22;4975795;28;21243;-67
2023/06/17 04:38:25;;;;;;;6.03;5.07;;;21.00;95.00;;;21.53;nan;100524.66;4994356;28;20696;-66
2023/06/17 04:40:52;;;;;;;4.57;3.60;;;21.20;94.50;;;21.68;nan;100528.13;4983013;28;20635;-67
2023/06/17 04:43:24;;;;;;;4.87;3.93;;;21.40;94.20;;;21.85;nan;100528.81;4979425;28;20652;-67
2023/06/17 04:45:51;;;;;;;4.17;3.63;;;21.50;94.80;;;21.94;nan;100531.16;4991757;28;20670;-67
2023/06/17 04:48:19;;;;;;;5.57;3.47;;;21.60;94.90;;;22.09;nan;100526.66;4992660;28;20661;-67
2023/06/17 04:50:47;;;;;;;3.40;3.10;;;21.70;95.20;;;22.23;nan;100535.63;4993066;28;20627;-67
2023/06/17 04:53:14;;;;;;;3.50;2.90;;;21.90;95.90;;;22.33;nan;100521.00;4992730;28;20630;-66
2023/06/17 04:55:43;;;;;;;6.77;3.80;;;22.00;96.90;;;22.40;nan;100529.06;4992992;28;21241;-67
2023/06/17 04:58:10;;;;;;;3.03;2.83;;;22.10;98.00;;;22.47;nan;100529.91;4994309;28;20622;-67
2023/06/17 05:00:37;;;;;;;4.37;3.37;;;22.20;93.80;;;22.64;nan;100528.69;4991151;28;20642;-66
2023/06/17 05:03:04;;;;;;;3.57;3.00;;;22.30;93.90;;;22.89;nan;100529.13;4992371;28;21110;-67
2023/06/17 05:05:31;;;;;;;4.20;3.40;;;22.50;94.00;;;23.11;nan;100534.22;4992317;28;20646;-67
2023/06/17 05:07:58;;;;;;;5.40;3.77;;;22.70;93.80;;;23.35;nan;100529.50;4992198;28;20678;-67
2023/06/17 05:10:25;;;;;;;7.60;4.10;;;22.90;93.20;;;23.55;nan;100531.25;4994442;28;20633;-67
2023/06/17 05:12:52;;;;;;;4.20;3.80;;;23.10;92.60;;;23.76;nan;100538.34;4992323;28;20634;-67
2023/06/17 05:15:19;;;;;;;4.60;4.03;;;23.30;92.50;;;23.92;nan;100544.16;4993288;28;21253;-66
2023/06/17 05:17:46;;;;;;;4.20;3.67;;;23.50;92.60;;;24.15;nan;100543.06;4982688;28;20650;-68
2023/06/17 05:20:13;;;;;;;4.27;3.77;;;23.70;92.20;;;24.25;nan;100538.16;4993344;28;20625;-67
2023/06/17 05:22:40;;;;;;;5.30;3.73;;;23.90;92.20;;;24.41;nan;100541.25;4992032;28;20646;-68
2023/06/17 05:25:07;;;;;;;5.00;3.90;;;24.00;91.70;;;24.51;nan;100536.34;4977997;28;20750;-66
2023/06/17 05:27:34;;;;;;;3.33;3.03;;;24.20;91.90;;;24.65;nan;100546.03;5001897;28;20638;-67
2023/06/17 05:30:01;;;;;;;5.23;3.87;;;24.30;91.80;;;24.82;nan;100545.66;5010550;28;20672;-67
2023/06/17 05:32:28;;;;;;;4.63;3.50;;;24.40;92.30;;;25.00;nan;100548.56;4994436;28;20642;-66
2023/06/17 05:34:55;;;;;;;4.03;3.50;;;24.60;92.90;;;25.18;nan;100546.91;4992638;28;21272;-66
2023/06/17 05:37:22;;;;;;;3.93;3.50;;;24.60;66.40;;;25.21;nan;100543.00;4991284;28;21042;-67
2023/06/17 05:39:49;;;;;;;4.47;3.73;;;24.70;66.20;;;25.27;nan;100543.00;5004827;28;20621;-65
2023/06/17 05:42:16;;;;;;;5.47;4.87;;;24.80;65.90;;;25.36;nan;100549.72;5008892;28;20641;-67
2023/06/17 05:44:43;;;;;;;5.57;4.60;;;24.90;65.20;;;25.52;nan;100553.03;4978044;28;20703;-67
2023/06/17 05:47:10;;;;;;;6.00;4.80;;;25.00;65.20;;;25.61;nan;100557.13;4997188;28;20630;-67
2023/06/17 05:49:39;;;;;;;6.27;4.10;;;25.10;65.30;;;25.83;nan;100556.63;4979973;28;20650;-67
2023/06/17 05:52:06;;;;;;;4.80;4.30;;;25.30;65.20;;;26.07;nan;100558.59;4987697;28;20672;-67
2023/06/17 05:54:33;;;;;;;4.63;3.83;;;25.50;64.80;;;26.20;nan;100562.28;4982861;28;20676;-68
2023/06/17 05:57:00;;;;;;;5.20;3.93;;;25.70;64.40;;;26.43;nan;100566.06;4987541;28;20630;-67
2023/06/17 05:59:29;;;;;;;5.13;3.90;;;25.80;64.10;;;26.57;nan;100566.81;4988527;28;21019;-66
2023/06/17 06:01:56;;;;;;;5.70;4.17;;;26.10;63.60;;;26.72;nan;100545.91;4986333;28;20638;-67
2023/06/17 06:04:23;;;;;;;5.43;4.30;;;26.20;63.20;;;26.98;nan;100561.00;4993278;28;21610;-66
2023/06/17 06:06:50;;;;;;;10.53;4.20;;;26.40;63.10;;;27.21;nan;100561.19;4989723;28;20650;-67
2023/06/17 06:09:17;;;;;;;7.03;4.93;;;26.60;62.40;;;27.43;nan;100563.28;4990098;28;20688;-67
2023/06/17 06:11:45;;;;;;;6.40;5.00;;;26.80;62.10;;;27.67;nan;100567.78;4989085;28;21281;-66
2023/06/17 06:14:12;;;;;;;7.20;5.50;;;27.10;61.00;;;27.93;nan;100560.47;4985872;28;20684;-65
2023/06/17 06:16:40;;;;;;;4.90;4.13;;;27.30;60.80;;;28.17;nan;100571.13;4989400;28;21544;-67
2023/06/17 06:19:07;;;;;;;6.53;4.70;;;27.50;60.40;;;28.58;nan;100572.25;4985976;28;21085;-67
2023/06/17 06:21:35;;;;;;;6.87;5.13;;;27.90;60.20;;;28.93;nan;100573.97;4985105;28;22386;-68
2023/06/17 06:24:02;;;;;;;5.60;5.10;;;28.20;59.50;;;29.28;nan;100581.28;4984389;28;20666;-66
2023/06/17 06:26:29;;;;;;;3.90;3.60;;;28.60;59.20;;;29.75;nan;100583.72;4986155;28;21001;-67
2023/06/17 06:28:56;;;;;;;4.40;3.47;;;29.00;58.80;;;30.17;nan;100587.03;4985719;28;20669;-67
2023/06/17 06:31:23;;;;;;;4.33;3.83;;;29.40;58.40;;;30.24;nan;100587.69;4981223;28;20634;-66
2023/06/17 06:33:50;;;;;;;4.27;3.90;;;29.70;57.90;;;30.15;nan;100573.00;4991710;28;20645;-67
2023/06/17 06:36:17;;;;;;;5.90;4.27;;;29.70;57.70;;;30.19;nan;100587.59;5006803;28;20657;-66
2023/06/17 06:38:44;;;;;;;8.33;5.27;;;29.80;57.10;;;30.37;nan;100590.13;4999814;28;20642;-67
2023/06/17 06:41:11;;;;;;;7.80;4.30;;;29.90;57.10;;;30.41;nan;100585.09;4991700;28;20637;-66
2023/06/17 06:43:38;;;;;;;6.43;5.30;;;30.00;56.70;;;31.03;nan;100585.94;4982804;28;20742;-67
2023/06/17 06:46:05;;;;;;;5.67;4.80;;;30.50;56.20;;;31.42;nan;100584.97;4990063;28;20696;-65
2023/06/17 06:48:32;;;;;;;5.73;4.30;;;30.90;55.30;;;31.78;nan;100589.78;4974579;28;20666;-65
2023/06/17 06:51:01;;;;;;;4.33;3.93;;;31.30;54.20;;;32.07;nan;100596.66;4951716;28;20661;-67
2023/06/17 06:53:28;;;;;;;4.53;4.13;;;31.70;53.70;;;32.64;nan;100598.94;4996320;28;20614;-69
2023/06/17 06:55:55;;;;;;;6.80;4.83;;;32.10;53.30;;;33.06;nan;100596.34;4980171;28;21017;-68
2023/06/17 06:58:22;;;;;;;4.40;4.10;;;32.60;52.90;;;33.54;nan;100594.28;4991040;28;20630;-70
2023/06/17 07:00:49;;;;;;;5.73;5.13;;;33.10;52.30;;;34.15;nan;100603.53;4987715;28;20645;-66
2023/06/17 07:03:16;;;;;;;6.93;5.67;;;33.70;52.10;;;34.67;nan;100603.41;4990615;28;20626;-68
2023/06/17 07:05:43;;;;;;;4.90;4.50;;;34.20;51.40;;;35.07;nan;100606.19;4989796;28;21240;-67
2023/06/17 07:08:10;;;;;;;5.60;5.00;;;34.60;50.80;;;35.80;nan;100601.16;4991263;28;20583;-68
2023/06/17 07:10:39;;;;;;;8.00;5.90;;;35.20;50.20;;;36.52;nan;100608.75;4990709;28;20665;-67
2023/06/17 07:13:08;;;;;;;5.43;4.77;;;35.90;49.30;;;37.13;nan;100609.94;4989014;28;20989;-68
2023/06/17 07:15:35;;;;;;;8.50;5.63;;;36.40;48.70;;;37.65;nan;100611.91;4990428;28;20666;-67
2023/06/17 07:18:02;;;;;;;4.70;4.30;;;37.00;48.60;;;38.21;nan;100616.69;4990292;28;21188;-68
2023/06/17 07:20:29;;;;;;;6.20;5.60;;;37.60;47.20;;;38.41;nan;100609.06;4990373;28;20688;-68
2023/06/17 07:22:56;;;;;;;6.27;5.77;;;37.90;46.60;;;38.73;nan;100616.53;4988020;28;20631;-66
2023/06/17 07:25:24;;;;;;;5.63;5.13;;;38.20;46.20;;;38.86;nan;100617.69;4989327;28;20655;-68
2023/06/17 07:27:51;;;;;;;5.60;5.10;;;38.40;45.80;;;39.34;nan;100624.50;4973420;28;20610;-69
2023/06/17 07:30:18;;;;;;;5.60;5.10;;;38.70;45.60;;;39.70;nan;100611.81;4998298;28;20663;-66
2023/06/17 07:32:45;;;;;;;8.00;5.70;;;39.10;45.30;;;39.98;nan;100615.38;4976306;28;21213;-67
2023/06/17 07:35:12;;;;;;;5.77;5.30;;;39.40;44.70;;;40.08;nan;100615.97;5005101;28;20739;-65
2023/06/17 07:37:39;;;;;;;7.37;5.67;;;39.70;44.50;;;40.05;nan;100610.31;5001109;28;20625;-68
2023/06/17 07:40:07;;;;;;;4.83;4.33;;;39.70;44.10;;;40.23;nan;100601.97;4995920;28;20618;-69
2023/06/17 07:42:34;;;;;;;4.03;3.73;;;39.90;43.70;;;40.69;nan;100603.69;4970457;28;20635;-67
2023/06/17 07:45:01;;;;;;;4.50;4.10;;;40.20;43.30;;;41.20;nan;100606.78;4954147;28;20651;-69
2023/06/17 07:47:28;;;;;;;5.10;4.67;;;40.60;43.10;;;41.66;nan;100607.19;4981532;28;20642;-68
2023/06/17 07:49:55;;;;;;;3.93;3.63;;;41.10;43.00;;;42.11;nan;100609.75;4990109;28;20657;-69
2023/06/17 07:52:22;;;;;;;3.50;3.20;;;41.60;42.20;;;42.75;nan;100610.75;4975003;28;20641;-68
2023/06/17 07:54:51;;;;;;;4.87;4.47;;;42.10;41.80;;;42.83;nan;100607.22;4970715;28;20658;-71
2023/06/17 07:57:18;;;;;;;5.23;4.93;;;42.30;41.40;;;42.93;nan;100606.91;4990458;28;20598;-68
2023/06/17 07:59:45;;;;;;;4.50;4.30;;;42.50;41.50;;;42.99;nan;100605.59;4989964;28;20642;-68
2023/06/17 08:02:12;;;;;;;5.17;4.83;;;42.60;41.30;;;43.09;nan;100603.31;4993492;28;20634;-70
2023/06/17 08:04:39;;;;;;;4.33;4.13;;;42.80;40.80;;;43.11;nan;100600.22;4990086;28;21093;-69
2023/06/17 08:07:06;;;;;;;5.17;4.83;;;42.90;40.30;;;43.20;nan;100598.28;4988705;28;20622;-69
2023/06/17 08:09:33;;;;;;;5.20;4.90;;;43.00;40.00;;;43.14;nan;100599.59;4989213;28;20678;-67
2023/06/17 08:12:00;;;;;;;5.37;5.00;;;43.00;40.00;;;43.65;nan;100596.69;4990472;28;21126;-68
2023/06/17 08:14:27;;;;;;;5.30;4.90;;;43.30;39.60;;;43.92;nan;100595.38;4986961;28;20673;-68
2023/06/17 08:16:55;;;;;;;4.37;4.13;;;43.70;39.60;;;43.91;nan;100583.59;4976239;28;20644;-70
2023/06/17 08:19:22;;;;;;;5.27;4.90;;;43.90;39.40;;;43.86;nan;100585.72;4992392;28;20625;-72
2023/06/17 08:21:50;;;;;;;5.10;3.43;;;43.80;39.60;;;44.08;nan;100579.16;4989694;28;20660;-67
2023/06/17 08:24:25;;;;;;;5.23;4.93;;;44.00;39.50;;;44.31;nan;100575.72;4985766;28;20728;-68
2023/06/17 08:26:53;;;;;;;4.97;4.70;;;44.10;39.30;;;44.50;nan;100578.81;4987827;28;21137;-67
2023/06/17 08:29:21;;;;;;;5.67;5.37;;;44.30;39.10;;;44.76;nan;100578.56;4988824;28;21015;-68
2023/06/17 08:31:51;;;;;;;5.50;5.10;;;44.60;39.00;;;45.16;nan;100568.59;5003709;28;20668;-70
2023/06/17 08:34:19;;;;;;;4.70;4.47;;;44.80;38.00;;;45.59;nan;100576.38;4988066;28;20666;-70
2023/06/17 08:36:54;;;;;;;5.30;4.80;;;45.20;38.50;;;45.80;nan;100578.97;4992668;28;20633;-68
2023/06/17 08:39:21;;;;;;;4.53;4.33;;;45.40;37.90;;;46.25;nan;100570.50;4977199;28;21196;-68
2023/06/17 08:41:49;;;;;;;4.37;4.17;;;45.80;37.90;;;45.78;nan;100567.50;5008019;28;20628;-68
2023/06/17 08:44:21;;;;;;;4.10;3.90;;;45.60;37.60;;;45.74;nan;100567.41;4969527;28;20676;-74
2023/06/17 08:46:51;;;;;;;4.60;4.30;;;45.60;37.40;;;45.91;nan;100563.56;4973633;28;20639;-69
2023/06/17 08:49:21;;;;;;;4.70;4.50;;;45.80;37.20;;;46.31;nan;100566.38;4941379;28;21461;-71
2023/06/17 08:51:51;;;;;;;3.83;3.73;;;46.00;37.10;;;46.40;nan;100567.03;4988355;28;21246;-69
2023/06/17 08:54:22;;;;;;;3.90;3.80;;;46.30;37.00;;;46.44;nan;100563.22;4973058;28;20655;-70
2023/06/17 08:56:50;;;;;;;3.93;3.80;;;46.30;37.00;;;46.83;nan;100567.88;4986231;28;20644;-68
2023/06/17 08:59:17;;;;;;;3.80;3.67;;;46.60;37.00;;;47.26;nan;100569.00;4989394;28;20996;-69
2023/06/17 09:01:44;;;;;;;4.00;3.63;;;47.00;36.70;;;47.39;nan;100563.03;4971059;28;20621;-69
2023/06/17 09:04:14;;;;;;;4.73;4.53;;;47.10;36.30;;;47.36;nan;100557.41;4954653;28;20230;-66
2023/06/17 09:06:41;;;;;;;3.63;3.53;;;47.20;36.40;;;47.28;nan;100561.94;4988248;28;20216;-69
2023/06/17 09:09:08;;;;;;;5.50;4.57;;;47.20;36.20;;;47.30;nan;100567.91;4990204;28;20211;-68
2023/06/17 09:11:35;;;;;;;4.73;4.53;;;47.20;36.40;;;47.63;nan;100570.31;4988206;28;20215;-69
2023/06/17 09:14:03;;;;;;;4.33;4.23;;;47.40;36.40;;;48.05;nan;100564.97;4988918;28;20223;-66
2023/06/17 09:16:34;;;;;;;3.73;3.63;;;47.80;35.90;;;48.13;nan;100556.47;4975042;28;20210;-67
2023/06/17 09:19:09;;;;;;;4.17;3.97;;;47.90;35.70;;;48.45;nan;100550.81;4989983;28;20207;-69
2023/06/17 09:21:36;;;;;;;4.57;4.32;;;48.10;35.60;;;48.25;nan;100548.03;4963924;28;20195;-67
2023/06/17 09:24:08;;;;;;;4.28;4.13;;;48.10;35.20;;;48.20;nan;100545.53;4988848;28;20242;-73
2023/06/17 09:26:41;;;;;;;4.75;4.40;;;48.10;35.10;;;48.00;nan;100552.22;4986477;28;20211;-67
2023/06/17 09:29:11;;;;;;;4.57;4.47;;;48.10;34.30;;;48.07;nan;100544.06;4990810;28;20209;-67
2023/06/17 09:31:46;;;;;;;4.10;4.00;;;48.10;34.60;;;48.15;nan;100537.56;4993241;28;20312;-68
2023/06/17 09:34:14;;;;;;;4.13;4.03;;;48.10;33.60;;;48.37;nan;100529.69;4989107;28;20230;-69
2023/06/17 09:36:43;;;;;;;4.68;4.50;;;48.20;33.80;;;48.68;nan;100533.06;4984897;28;20214;-68
2023/06/17 09:39:12;;;;;;;5.18;4.97;;;48.50;34.10;;;48.62;nan;100528.19;4989814;28;20665;-67
2023/06/17 09:41:41;;;;;;;4.57;4.38;;;48.40;34.30;;;48.49;nan;100526.75;4994323;28;20208;-68
2023/06/17 09:44:08;;;;;;;4.38;4.28;;;48.30;33.70;;;48.58;nan;100516.25;4990204;28;20720;-68
2023/06/17 09:46:38;;;;;;;4.63;4.43;;;48.40;33.80;;;48.50;nan;100514.50;4978361;28;20637;-70
2023/06/17 09:49:15;;;;;;;4.18;4.07;;;48.40;33.30;;;48.08;nan;100506.13;4996409;28;20220;-68
2023/06/17 09:51:43;;;;;;;3.60;3.50;;;48.10;33.20;;;47.70;nan;100519.91;5000957;28;20604;-69
2023/06/17 09:54:12;;;;;;;3.77;3.57;;;47.80;31.50;;;47.46;nan;100509.91;5001148;28;20606;-70
2023/06/17 09:56:38;;;;;;;4.00;3.80;;;47.30;31.40;;;47.26;nan;100508.22;4975591;28;20197;-67
2023/06/17 09:59:07;;;;;;;3.53;3.43;;;47.10;32.00;;;46.90;nan;100505.72;4992250;28;20640;-70
2023/06/17 10:01:39;;;;;;;4.37;4.20;;;46.70;32.20;;;46.13;nan;100505.16;5001838;28;20641;-68
2023/06/17 10:04:09;;;;;;;3.80;3.60;;;45.80;32.70;;;45.21;nan;100491.28;4973604;28;20657;-69
2023/06/17 10:06:40;;;;;;;4.23;4.00;;;44.80;32.20;;;44.09;nan;100492.78;4993299;28;21008;-68
2023/06/17 10:09:11;;;;;;;4.13;3.87;;;43.60;32.30;;;42.89;nan;100496.16;4990510;28;21042;-69
2023/06/17 10:11:44;;;;;;;4.00;3.70;;;42.50;32.60;;;41.65;nan;100479.59;4992211;28;20634;-70
2023/06/17 10:14:17;;;;;;;3.87;3.67;;;41.20;32.90;;;40.71;nan;100475.63;4975037;28;20741;-69
2023/06/17 10:16:48;;;;;;;3.43;3.23;;;40.20;34.00;;;40.16;nan;100475.88;4977710;28;20622;-70
2023/06/17 10:19:21;;;;;;;4.03;3.73;;;39.50;34.70;;;39.43;nan;100472.53;4989101;28;20638;-68
2023/06/17 10:21:53;;;;;;;3.50;3.23;;;38.70;35.10;;;38.09;nan;100467.25;4965473;28;20628;-67
2023/06/17 10:24:22;;;;;;;4.80;4.40;;;37.60;35.80;;;37.19;nan;100459.16;4995815;28;20677;-70
2023/06/17 10:26:51;;;;;;;4.63;4.27;;;36.60;37.20;;;36.59;nan;100457.03;4971201;28;20639;-68
2023/06/17 10:29:18;;;;;;;4.70;4.30;;;36.00;37.50;;;36.05;nan;100465.31;4969960;28;20651;-67